Date,TemperatureHighF,TemperatureAvgF,TemperatureLowF,DewpointHighF,DewpointAvgF,DewpointLowF,HumidityHigh,HumidityAvg,HumidityLow,PressureMaxIn,PressureMinIn,WindSpeedMaxMPH,WindSpeedAvgMPH,GustSpeedMaxMPH,PrecipitationSumIn
2013-2-1,24,18,13,16,11,4,89,74,60,30.12,29.57,26,12,0,0.00
2013-2-2,20,13,5,13,7,1,85,77,60,30.14,29.97,10,0,0,0.00
2013-2-3,25,13,0,16,7,-5,88,76,58,29.97,29.73,4,0,0,0.00
2013-2-4,19,16,9,16,11,5,89,80,62,29.89,29.75,20,5,0,0.00
2013-2-5,21,13,0,11,5,-4,86,71,52,29.97,29.82,2,0,0,0.00
2013-2-6,26,18,3,23,9,-2,91,70,37,30.33,29.83,26,6,0,0.00
2013-2-7,26,15,1,10,3,-4,84,61,40,30.47,30.22,7,0,0,0.00
2013-2-8,29,25,20,25,18,8,93,77,53,30.22,29.78,7,1,0,0.00
2013-2-9,21,14,-2,18,5,-7,88,69,48,30.36,29.86,22,8,0,0.00
2013-2-10,32,13,-7,13,1,-13,84,63,30,30.45,30.10,5,0,0,0.00
2013-2-11,41,33,26,37,26,7,94,77,43,30.09,29.55,14,1,0,0.26
2013-2-12,33,32,30,30,27,24,94,84,71,29.87,29.62,18,7,0,0.02
2013-2-13,36,29,20,25,21,17,88,74,53,29.83,29.67,6,1,0,0.04
2013-2-14,36,28,17,31,22,15,94,79,61,29.89,29.70,4,0,0,0.03
2013-2-15,38,34,29,33,28,22,96,79,56,29.95,29.75,17,3,0,0.07
2013-2-16,29,24,16,22,11,3,79,59,38,29.97,29.83,16,5,0,0.00
2013-2-17,17,12,9,5,1,-2,77,60,43,30.01,29.78,30,11,0,0.00
2013-2-18,22,13,3,9,1,-7,72,61,51,30.23,30.02,16,5,0,0.00
2013-2-19,32,27,18,31,18,5,95,72,53,30.04,29.58,12,0,0,0.00
2013-2-20,26,22,20,21,17,13,89,79,62,29.88,29.66,20,8,0,0.00
2013-2-21,19,14,10,16,9,3,89,77,70,30.38,29.86,26,11,0,0.00
2013-2-22,33,23,8,24,16,5,88,76,60,30.39,30.10,4,0,0,0.10
2013-2-23,35,33,32,33,29,23,96,85,68,30.10,29.78,4,0,0,0.21
2013-2-24,34,30,29,33,28,24,96,88,74,29.94,29.76,15,4,0,0.04
2013-2-25,37,31,21,31,26,19,94,84,71,30.20,29.94,16,3,0,0.21
2013-2-26,41,31,16,28,23,14,92,74,56,30.22,29.89,10,2,0,0.03
2013-2-27,42,36,32,36,32,28,96,87,72,29.91,29.48,13,2,0,1.00
2013-2-28,37,34,32,34,32,31,97,94,84,29.58,29.47,4,0,0,0.31